Roxbury Flat, Vermont
Current Conditions -  °F | °C
As of 12:51 AM on Sunday 23 Nov 2014 (Local Time) from KMPV Reporting Station
Overcast Overcast  
Wind Chill: 37°   Ceiling: 2200
Heat Index: 43°   Visibility: 10mi
Dew Point: 35°   Wind: 12mph
Humidity: 74%   Direction: 230°SW
Pressure: 29.96"   Gusts: 18mph
Location:  44.0701°N, 72.7276°W
Report Text: KMPV 230551Z AUTO 23010G16KT 200V260 10SM OVC022 06/02 A2996 RMK AO2 SLP157 T00610017 10061 20033 53002
Loading
Personal Weather Stations






























Interactive Weather Map New forecast layout! Learn more

10-Day Weather Forecast

Advertisements
Track Severe Weather on mobile